Time;durP1;ratioP1;P1;durP2;ratioP2;P2;SDS_P1;SDS_P2;PMS_P1;PMS_P2;Temp;Humidity;BMP_temperature;BMP_pressure;BME280_temperature;BME280_humidity;BME280_pressure;Samples;Min_cycle;Max_cycle;Signal;HPM_P1;HPM_P2
2022/02/11 00:06:41;;;;;;;21.23;10.18;;;;;;;;;;4977923;28;20022;-71
2022/02/11 00:09:07;;;;;;;21.83;11.85;;;;;;;;;;4993849;28;20056;-71
2022/02/11 00:11:34;;;;;;;16.55;10.38;;;;;;;;;;4986056;28;20023;-71
2022/02/11 00:14:01;;;;;;;18.63;10.25;;;;;;;;;;4974193;28;20038;-71
2022/02/11 00:16:27;;;;;;;27.77;11.10;;;;;;;;;;4978078;28;20046;-71
2022/02/11 00:18:53;;;;;;;23.55;11.15;;;;;;;;;;4990592;28;20046;-71
2022/02/11 00:21:22;;;;;;;23.45;11.25;;;;;;;;;;4984353;28;20034;-71
2022/02/11 00:23:48;;;;;;;18.85;10.75;;;;;;;;;;4985857;28;20031;-70
2022/02/11 00:26:14;;;;;;;17.25;10.55;;;;;;;;;;4976060;28;20038;-71
2022/02/11 00:33:55;;;;;;;22.55;11.75;;;;;;;;;;4993291;28;20075;-71
2022/02/11 00:36:26;;;;;;;21.05;12.15;;;;;;;;;;4992228;28;20076;-71
2022/02/11 01:03:29;;;;;;;20.38;10.48;;;;;;;;;;4983547;28;20077;-71
2022/02/11 01:05:55;;;;;;;23.15;10.95;;;;;;;;;;4992940;28;20034;-71
2022/02/11 01:08:21;;;;;;;21.75;11.88;;;;;;;;;;4975741;28;20030;-71
2022/02/11 01:10:47;;;;;;;19.73;10.45;;;;;;;;;;4992730;28;20034;-71
2022/02/11 01:13:14;;;;;;;22.02;10.35;;;;;;;;;;4973820;28;20035;-71
2022/02/11 01:15:45;;;;;;;22.15;9.82;;;;;;;;;;4973021;28;20051;-71
2022/02/11 01:18:13;;;;;;;22.95;10.00;;;;;;;;;;4973019;28;20034;-71
2022/02/11 01:26:09;;;;;;;19.67;9.93;;;;;;;;;;4973386;28;20038;-71
2022/02/11 01:38:49;;;;;;;18.83;9.82;;;;;;;;;;4973231;28;20046;-71
2022/02/11 03:48:32;;;;;;;25.85;16.48;;;;;;;;;;4971689;28;20073;-71
2022/02/11 03:49:19;;;;;;;27.52;16.65;;;;;;;;;;4971793;28;20057;-71
2022/02/11 05:07:03;;;;;;;26.45;13.43;;;;;;;;;;4988875;28;20668;-70
2022/02/11 05:09:29;;;;;;;24.80;12.93;;;;;;;;;;4973249;28;20023;-70
2022/02/11 05:11:55;;;;;;;17.70;12.15;;;;;;;;;;4972011;28;20031;-71
2022/02/11 05:14:21;;;;;;;21.75;11.27;;;;;;;;;;4973073;28;20465;-71
2022/02/11 05:16:47;;;;;;;24.40;11.57;;;;;;;;;;4973094;28;20070;-71
2022/02/11 05:19:13;;;;;;;26.08;12.05;;;;;;;;;;4972810;28;20046;-71
2022/02/11 05:21:39;;;;;;;23.63;11.82;;;;;;;;;;4982646;28;20038;-71
2022/02/11 05:24:05;;;;;;;20.33;11.25;;;;;;;;;;4990160;28;20040;-71
2022/02/11 05:26:31;;;;;;;18.75;10.60;;;;;;;;;;4973528;28;20388;-71
2022/02/11 05:28:57;;;;;;;19.33;11.63;;;;;;;;;;4973059;28;20402;-71
2022/02/11 05:31:24;;;;;;;17.42;11.55;;;;;;;;;;4991958;28;20030;-71
2022/02/11 05:33:50;;;;;;;19.05;11.30;;;;;;;;;;4992361;28;20023;-70
2022/02/11 05:36:16;;;;;;;22.33;12.20;;;;;;;;;;4989240;28;20503;-71
2022/02/11 05:38:42;;;;;;;22.85;11.63;;;;;;;;;;4992170;28;20038;-70
2022/02/11 05:41:10;;;;;;;19.60;11.57;;;;;;;;;;4991211;28;20034;-70
2022/02/11 05:43:36;;;;;;;25.88;12.13;;;;;;;;;;4990936;28;20395;-70
2022/02/11 05:46:02;;;;;;;23.90;11.90;;;;;;;;;;4991659;28;20113;-70
2022/02/11 05:48:28;;;;;;;20.17;11.57;;;;;;;;;;4990961;28;20026;-70
2022/02/11 05:50:54;;;;;;;20.92;10.77;;;;;;;;;;4989527;28;20083;-71
2022/02/11 05:53:20;;;;;;;19.88;11.10;;;;;;;;;;4992085;28;20026;-70
2022/02/11 05:55:46;;;;;;;19.15;9.55;;;;;;;;;;4989576;28;20045;-70
2022/02/11 05:58:12;;;;;;;21.38;10.70;;;;;;;;;;4991953;28;20018;-70
2022/02/11 06:00:38;;;;;;;20.42;10.55;;;;;;;;;;4990352;28;20262;-70
2022/02/11 06:03:04;;;;;;;20.98;10.25;;;;;;;;;;4989751;28;20034;-70
2022/02/11 06:05:30;;;;;;;22.58;11.25;;;;;;;;;;4974207;28;20039;-70
2022/02/11 06:07:56;;;;;;;20.48;11.30;;;;;;;;;;4972432;28;20397;-70
2022/02/11 06:10:22;;;;;;;20.80;11.32;;;;;;;;;;4972427;28;20031;-70
2022/02/11 06:12:48;;;;;;;16.00;10.27;;;;;;;;;;4977573;28;20030;-70
2022/02/11 06:15:17;;;;;;;18.73;11.65;;;;;;;;;;4991476;28;20423;-70
2022/02/11 06:17:43;;;;;;;21.13;13.02;;;;;;;;;;4987824;28;20031;-70
2022/02/11 06:20:09;;;;;;;16.52;11.35;;;;;;;;;;4991475;28;20035;-70
2022/02/11 06:22:35;;;;;;;18.50;11.98;;;;;;;;;;4985574;28;20790;-70
2022/02/11 06:25:02;;;;;;;27.33;13.15;;;;;;;;;;4990676;28;20035;-70
2022/02/11 06:27:28;;;;;;;25.77;13.15;;;;;;;;;;4990745;28;20026;-70
2022/02/11 06:29:54;;;;;;;24.10;12.00;;;;;;;;;;4989658;28;20026;-70
2022/02/11 06:32:20;;;;;;;23.40;12.23;;;;;;;;;;4991519;28;20026;-70
2022/02/11 06:34:46;;;;;;;23.17;12.52;;;;;;;;;;4990501;28;20082;-70
2022/02/11 06:37:12;;;;;;;27.67;13.50;;;;;;;;;;4989320;28;20113;-70
2022/02/11 06:39:38;;;;;;;22.77;12.57;;;;;;;;;;4990419;28;20116;-70
2022/02/11 06:42:04;;;;;;;26.85;12.82;;;;;;;;;;4988224;28;20558;-70
2022/02/11 06:44:30;;;;;;;20.42;12.88;;;;;;;;;;4991630;28;20031;-70
2022/02/11 06:46:56;;;;;;;22.27;12.70;;;;;;;;;;4989340;28;20511;-70
2022/02/11 06:49:22;;;;;;;22.38;12.38;;;;;;;;;;4990092;28;20027;-70
2022/02/11 06:51:48;;;;;;;20.85;12.93;;;;;;;;;;4978602;28;20026;-70
2022/02/11 06:54:14;;;;;;;28.23;13.40;;;;;;;;;;4991182;28;20027;-70
2022/02/11 06:56:40;;;;;;;24.10;12.15;;;;;;;;;;4989653;28;20030;-70
2022/02/11 06:59:06;;;;;;;19.80;12.00;;;;;;;;;;4990975;28;20392;-70
2022/02/11 07:01:32;;;;;;;24.23;12.90;;;;;;;;;;4990363;28;20109;-71
2022/02/11 07:03:59;;;;;;;19.65;10.48;;;;;;;;;;4989808;28;20380;-70
2022/02/11 07:06:25;;;;;;;19.65;12.38;;;;;;;;;;4987764;28;20023;-70
2022/02/11 07:08:51;;;;;;;22.15;12.38;;;;;;;;;;4994251;28;20109;-70
2022/02/11 07:11:17;;;;;;;29.33;12.40;;;;;;;;;;5000494;28;20026;-70
2022/02/11 07:13:43;;;;;;;25.05;12.95;;;;;;;;;;4989650;28;20034;-70
2022/02/11 07:16:09;;;;;;;25.33;13.68;;;;;;;;;;4982313;28;20051;-70
2022/02/11 07:21:40;;;;;;;26.48;14.32;;;;;;;;;;4971036;28;20030;-70
2022/02/11 07:24:06;;;;;;;21.27;13.32;;;;;;;;;;4971461;28;20051;-70
2022/02/11 07:26:32;;;;;;;24.92;14.10;;;;;;;;;;4979870;28;20076;-70
2022/02/11 07:28:58;;;;;;;20.20;13.43;;;;;;;;;;4989265;28;20023;-70
2022/02/11 07:31:25;;;;;;;29.73;15.07;;;;;;;;;;4981244;28;20441;-70
2022/02/11 07:33:51;;;;;;;32.05;14.77;;;;;;;;;;4976918;28;20038;-70
2022/02/11 07:36:18;;;;;;;23.50;14.57;;;;;;;;;;4985009;28;20061;-69
2022/02/11 07:38:44;;;;;;;29.85;13.75;;;;;;;;;;4990682;28;20037;-69
2022/02/11 07:47:17;;;;;;;27.88;14.52;;;;;;;;;;4982536;28;20087;-69
2022/02/11 07:49:43;;;;;;;25.63;14.15;;;;;;;;;;4993892;28;20122;-70
2022/02/11 07:52:09;;;;;;;27.17;14.48;;;;;;;;;;4991883;28;20039;-70
2022/02/11 07:54:35;;;;;;;27.35;14.15;;;;;;;;;;4993690;28;20026;-70
2022/02/11 07:57:01;;;;;;;32.65;14.52;;;;;;;;;;4991248;28;20048;-70
2022/02/11 07:59:27;;;;;;;28.20;14.38;;;;;;;;;;4981349;28;20035;-69
2022/02/11 08:01:53;;;;;;;26.30;13.75;;;;;;;;;;4987503;28;20026;-70
2022/02/11 08:04:19;;;;;;;23.48;14.65;;;;;;;;;;4993691;28;20037;-70
2022/02/11 08:06:47;;;;;;;29.95;14.15;;;;;;;;;;4992536;28;20030;-70
2022/02/11 08:09:13;;;;;;;24.25;15.00;;;;;;;;;;4992063;28;20022;-70
2022/02/11 08:11:39;;;;;;;25.15;14.63;;;;;;;;;;4985014;28;20556;-70
2022/02/11 08:14:05;;;;;;;26.55;13.10;;;;;;;;;;4992303;28;20023;-70
2022/02/11 08:16:31;;;;;;;21.67;12.50;;;;;;;;;;4983824;28;20050;-70
2022/02/11 08:18:57;;;;;;;25.75;13.32;;;;;;;;;;4993350;28;20430;-70
2022/02/11 08:21:24;;;;;;;21.73;12.90;;;;;;;;;;4984885;28;20408;-70
2022/02/11 08:23:50;;;;;;;20.65;12.80;;;;;;;;;;4972821;28;20031;-70
2022/02/11 08:26:16;;;;;;;20.90;11.00;;;;;;;;;;4979145;28;20027;-70
2022/02/11 08:28:48;;;;;;;20.17;11.32;;;;;;;;;;4993332;28;20026;-70
2022/02/11 08:31:14;;;;;;;20.00;10.65;;;;;;;;;;4974929;28;20034;-70
2022/02/11 08:33:40;;;;;;;23.73;11.30;;;;;;;;;;4974105;28;20031;-70
2022/02/11 08:36:07;;;;;;;20.45;11.38;;;;;;;;;;4977063;28;20430;-70
2022/02/11 08:38:34;;;;;;;21.27;11.77;;;;;;;;;;4993087;28;20496;-70
2022/02/11 08:41:00;;;;;;;20.00;11.95;;;;;;;;;;4992032;28;20026;-70
2022/02/11 08:43:27;;;;;;;18.35;11.27;;;;;;;;;;4992917;28;20054;-70
2022/02/11 08:45:54;;;;;;;18.00;11.38;;;;;;;;;;4991736;28;20061;-70
2022/02/11 08:48:20;;;;;;;28.60;11.50;;;;;;;;;;4992948;28;20058;-70
2022/02/11 08:50:46;;;;;;;22.30;10.98;;;;;;;;;;4991780;28;20391;-70
2022/02/11 08:53:15;;;;;;;23.40;10.52;;;;;;;;;;4992844;28;20494;-70
2022/02/11 08:55:42;;;;;;;21.83;11.77;;;;;;;;;;4990886;28;20503;-70
2022/02/11 08:58:09;;;;;;;28.63;12.95;;;;;;;;;;4972635;28;20080;-69
2022/02/11 09:00:36;;;;;;;20.02;11.23;;;;;;;;;;4975591;28;20053;-69
2022/02/11 09:03:03;;;;;;;20.48;11.20;;;;;;;;;;4991286;28;20050;-70
2022/02/11 09:05:30;;;;;;;23.38;11.63;;;;;;;;;;4992817;28;20026;-69
2022/02/11 09:07:57;;;;;;;26.40;13.48;;;;;;;;;;4984122;28;20116;-69
2022/02/11 09:10:26;;;;;;;19.90;10.68;;;;;;;;;;4986650;28;20019;-69
2022/02/11 09:12:52;;;;;;;25.63;15.63;;;;;;;;;;4985035;28;20042;-69
2022/02/11 09:15:21;;;;;;;19.40;10.32;;;;;;;;;;4989571;28;20051;-69
2022/02/11 09:17:47;;;;;;;18.95;9.20;;;;;;;;;;4991619;28;20109;-69
2022/02/11 09:20:14;;;;;;;33.40;16.92;;;;;;;;;;4992890;28;20400;-69
2022/02/11 09:22:41;;;;;;;37.45;20.77;;;;;;;;;;4976703;28;20031;-70
2022/02/11 09:25:07;;;;;;;36.25;19.33;;;;;;;;;;4971760;28;20480;-70
2022/02/11 09:27:35;;;;;;;31.58;19.27;;;;;;;;;;4985264;28;20087;-70
2022/02/11 09:30:02;;;;;;;33.60;20.88;;;;;;;;;;4992310;28;20109;-70
2022/02/11 09:32:29;;;;;;;39.63;21.27;;;;;;;;;;4989782;28;20022;-71
2022/02/11 09:34:56;;;;;;;39.38;21.65;;;;;;;;;;4990366;28;20046;-70
2022/02/11 09:37:22;;;;;;;37.65;21.52;;;;;;;;;;4990273;28;20122;-70
2022/02/11 09:49:12;;;;;;;38.50;22.10;;;;;;;;;;4975663;28;20622;-70
2022/02/11 09:51:39;;;;;;;38.85;20.65;;;;;;;;;;4972502;28;20033;-71
2022/02/11 09:54:06;;;;;;;34.00;21.65;;;;;;;;;;4973375;28;20037;-71
2022/02/11 09:56:32;;;;;;;29.65;21.83;;;;;;;;;;4972454;28;20027;-71
2022/02/11 09:58:59;;;;;;;36.10;21.23;;;;;;;;;;4972551;28;20034;-71
2022/02/11 10:01:26;;;;;;;33.25;20.08;;;;;;;;;;4991328;28;20542;-71
2022/02/11 10:04:08;;;;;;;29.80;18.98;;;;;;;;;;4990459;28;20039;-71
2022/02/11 10:06:34;;;;;;;33.45;18.95;;;;;;;;;;4972189;28;20412;-71
2022/02/11 10:09:01;;;;;;;31.65;20.30;;;;;;;;;;4972448;28;20037;-71
2022/02/11 10:11:28;;;;;;;27.15;19.73;;;;;;;;;;4990937;28;20347;-71
2022/02/11 10:13:56;;;;;;;34.55;20.80;;;;;;;;;;4991683;28;20104;-71
2022/02/11 10:16:25;;;;;;;30.15;19.95;;;;;;;;;;4989184;28;20080;-71
2022/02/11 10:22:15;;;;;;;34.20;19.23;;;;;;;;;;4987226;28;20049;-71
2022/02/11 10:24:42;;;;;;;32.42;20.52;;;;;;;;;;4982716;28;20079;-71
2022/02/11 10:27:17;;;;;;;26.27;17.98;;;;;;;;;;4991576;28;20022;-71
2022/02/11 10:29:44;;;;;;;25.63;16.50;;;;;;;;;;4991287;28;20160;-71
2022/02/11 10:32:10;;;;;;;23.73;15.70;;;;;;;;;;4991407;28;20030;-71
2022/02/11 10:34:39;;;;;;;27.77;17.15;;;;;;;;;;4990175;28;20380;-71
2022/02/11 10:37:08;;;;;;;29.80;17.63;;;;;;;;;;4991438;28;20034;-71
2022/02/11 10:39:36;;;;;;;29.73;17.73;;;;;;;;;;4977699;28;20082;-71
2022/02/11 10:42:06;;;;;;;26.73;16.70;;;;;;;;;;4972073;28;20038;-71
2022/02/11 10:44:39;;;;;;;30.63;19.02;;;;;;;;;;4971736;28;20110;-71
2022/02/11 10:47:10;;;;;;;28.00;18.17;;;;;;;;;;4972353;28;20030;-71
2022/02/11 10:49:46;;;;;;;31.58;19.45;;;;;;;;;;4984424;28;20022;-71
2022/02/11 10:52:17;;;;;;;30.65;18.83;;;;;;;;;;4989897;28;20046;-71
2022/02/11 10:54:44;;;;;;;28.05;17.42;;;;;;;;;;4990283;28;20033;-71
2022/02/11 10:57:13;;;;;;;29.98;19.25;;;;;;;;;;4991082;28;20030;-71
2022/02/11 10:59:40;;;;;;;22.70;17.27;;;;;;;;;;4989391;28;20084;-71
2022/02/11 11:02:09;;;;;;;24.70;15.38;;;;;;;;;;4990175;28;20056;-72
2022/02/11 11:04:35;;;;;;;31.48;14.55;;;;;;;;;;4978159;28;20480;-71
2022/02/11 11:07:03;;;;;;;24.35;15.10;;;;;;;;;;4971981;28;20425;-71
2022/02/11 11:09:29;;;;;;;20.15;13.85;;;;;;;;;;4982667;28;20042;-72
2022/02/11 11:12:00;;;;;;;23.80;13.77;;;;;;;;;;4989675;28;20026;-71
2022/02/11 11:14:27;;;;;;;25.92;13.90;;;;;;;;;;4979490;28;20122;-72
2022/02/11 11:16:55;;;;;;;22.25;13.00;;;;;;;;;;4983093;28;20571;-72
2022/02/11 11:19:22;;;;;;;21.60;12.60;;;;;;;;;;4989666;28;20077;-71
2022/02/11 11:22:13;;;;;;;25.80;12.32;;;;;;;;;;4987050;28;20118;-71
2022/02/11 11:24:49;;;;;;;18.35;10.88;;;;;;;;;;4982336;28;20039;-71
2022/02/11 11:27:34;;;;;;;17.40;10.07;;;;;;;;;;4990763;28;20032;-71
2022/02/11 11:30:00;;;;;;;;;;;;;;;;;;4989194;28;20035;-71
2022/02/11 11:32:27;;;;;;;21.15;11.35;;;;;;;;;;4990600;28;20008;-72
2022/02/11 11:35:05;;;;;;;22.80;11.98;;;;;;;;;;4976595;28;20093;-72
2022/02/11 11:37:32;;;;;;;19.52;10.73;;;;;;;;;;4971415;28;20034;-72
2022/02/11 11:39:58;;;;;;;22.58;11.13;;;;;;;;;;4971176;28;20038;-72
2022/02/11 11:51:35;;;;;;;17.70;8.50;;;;;;;;;;4974580;28;20041;-71
2022/02/11 11:54:21;;;;;;;19.55;10.38;;;;;;;;;;4971216;28;20027;-71
2022/02/11 11:56:53;;;;;;;19.98;10.35;;;;;;;;;;4976235;28;20030;-72
2022/02/11 11:59:22;;;;;;;17.63;10.30;;;;;;;;;;4972988;28;20050;-72
2022/02/11 12:01:59;;;;;;;15.85;10.25;;;;;;;;;;4975857;28;20160;-72
2022/02/11 12:04:26;;;;;;;19.30;10.43;;;;;;;;;;4990637;28;20049;-71
2022/02/11 12:06:57;;;;;;;21.33;10.02;;;;;;;;;;4983733;28;20038;-72
2022/02/11 12:09:24;;;;;;;17.27;9.77;;;;;;;;;;4969968;28;20043;-72
2022/02/11 12:12:07;;;;;;;23.77;10.73;;;;;;;;;;4975724;28;20034;-72
2022/02/11 12:14:35;;;;;;;20.08;10.50;;;;;;;;;;4988618;28;20546;-72
2022/02/11 12:17:03;;;;;;;18.33;9.93;;;;;;;;;;4987943;28;20505;-72
2022/02/11 12:19:30;;;;;;;21.23;10.60;;;;;;;;;;4988754;28;20129;-72
2022/02/11 12:21:58;;;;;;;15.80;9.65;;;;;;;;;;4988076;28;20026;-69
2022/02/11 12:27:20;;;;;;;21.08;9.95;;;;;;;;;;4989167;28;20045;-70
2022/02/11 12:29:48;;;;;;;13.27;8.90;;;;;;;;;;4989996;28;20463;-71
2022/02/11 12:38:26;;;;;;;17.02;9.85;;;;;;;;;;4980482;28;20037;-70
2022/02/11 12:40:55;;;;;;;16.42;10.30;;;;;;;;;;4992911;28;20042;-70
2022/02/11 12:43:23;;;;;;;26.17;10.95;;;;;;;;;;4992406;28;20035;-70
2022/02/11 12:45:50;;;;;;;14.60;10.18;;;;;;;;;;4993083;28;20026;-70
2022/02/11 12:48:17;;;;;;;20.25;9.25;;;;;;;;;;4991089;28;20026;-70
2022/02/11 12:50:45;;;;;;;16.58;9.55;;;;;;;;;;4991625;28;20030;-70
2022/02/11 12:53:13;;;;;;;15.45;9.88;;;;;;;;;;4990600;28;20033;-70
2022/02/11 12:55:40;;;;;;;18.55;10.10;;;;;;;;;;4993113;28;20023;-70
2022/02/11 12:58:10;;;;;;;25.42;11.00;;;;;;;;;;4991280;28;20574;-70
2022/02/11 13:00:38;;;;;;;18.02;10.63;;;;;;;;;;4992487;28;20034;-70
2022/02/11 13:03:04;;;;;;;22.40;10.40;;;;;;;;;;4989212;28;20029;-70
2022/02/11 13:05:33;;;;;;;18.63;10.30;;;;;;;;;;4973250;28;20373;-70
2022/02/11 13:11:07;;;;;;;17.52;9.70;;;;;;;;;;4977648;28;20041;-70
2022/02/11 13:16:38;;;;;;;15.77;9.73;;;;;;;;;;4970844;28;20110;-71
2022/02/11 13:25:34;;;;;;;17.08;8.80;;;;;;;;;;4978278;28;20028;-71
2022/02/11 13:28:08;;;;;;;15.60;8.68;;;;;;;;;;4984918;28;20391;-71
2022/02/11 13:30:36;;;;;;;15.23;8.20;;;;;;;;;;4989143;28;20064;-71
2022/02/11 13:33:21;;;;;;;16.13;8.95;;;;;;;;;;4992622;28;20026;-71
2022/02/11 13:35:49;;;;;;;14.52;7.90;;;;;;;;;;4990856;28;20079;-71
2022/02/11 13:38:32;;;;;;;15.52;8.73;;;;;;;;;;4976257;28;20063;-72
2022/02/11 13:41:07;;;;;;;16.30;7.57;;;;;;;;;;4989304;28;20387;-71
2022/02/11 13:44:04;;;;;;;13.60;8.13;;;;;;;;;;4991718;28;20038;-71
2022/02/11 13:46:36;;;;;;;18.13;8.68;;;;;;;;;;4987608;28;20039;-71
2022/02/11 13:49:06;;;;;;;12.75;7.80;;;;;;;;;;4972767;28;20122;-71
2022/02/11 13:51:33;;;;;;;19.45;9.10;;;;;;;;;;4988870;28;20083;-71
2022/02/11 13:54:20;;;;;;;15.60;9.20;;;;;;;;;;4983253;28;20075;-71
2022/02/11 13:56:48;;;;;;;17.40;8.70;;;;;;;;;;4991832;28;20526;-71
2022/02/11 13:59:23;;;;;;;15.88;7.97;;;;;;;;;;4989601;28;20046;-71
2022/02/11 14:01:50;;;;;;;13.50;8.40;;;;;;;;;;4991894;28;20125;-71
2022/02/11 14:04:20;;;;;;;16.63;7.82;;;;;;;;;;4988617;28;20034;-72
2022/02/11 14:06:48;;;;;;;14.88;8.57;;;;;;;;;;4990844;28;20034;-71
2022/02/11 14:09:35;;;;;;;15.45;8.77;;;;;;;;;;4988057;28;20030;-71
2022/02/11 14:12:02;;;;;;;19.67;8.80;;;;;;;;;;4972494;28;20027;-71
2022/02/11 14:14:31;;;;;;;15.48;8.50;;;;;;;;;;4977010;28;20368;-71
2022/02/11 14:16:58;;;;;;;17.08;8.07;;;;;;;;;;4970888;28;20039;-72
2022/02/11 14:19:25;;;;;;;13.90;8.70;;;;;;;;;;4975539;28;20383;-71
2022/02/11 14:21:56;;;;;;;17.98;8.60;;;;;;;;;;4991521;28;20411;-71
2022/02/11 14:24:24;;;;;;;21.10;8.60;;;;;;;;;;4986947;28;20031;-71
2022/02/11 14:26:51;;;;;;;12.68;7.70;;;;;;;;;;4972298;28;20018;-71
2022/02/11 14:29:18;;;;;;;16.30;8.45;;;;;;;;;;4972505;28;20043;-71
2022/02/11 14:31:45;;;;;;;12.60;8.07;;;;;;;;;;4991426;28;20030;-71
2022/02/11 14:34:12;;;;;;;16.60;7.95;;;;;;;;;;4983246;28;20548;-71
2022/02/11 14:36:39;;;;;;;16.45;8.32;;;;;;;;;;4975497;28;20030;-72
2022/02/11 14:39:07;;;;;;;11.75;7.53;;;;;;;;;;4990428;28;20384;-71
2022/02/11 14:41:46;;;;;;;17.25;9.52;;;;;;;;;;4972360;28;20027;-72
2022/02/11 14:44:33;;;;;;;16.52;8.57;;;;;;;;;;4977643;28;20034;-71
2022/02/11 14:47:00;;;;;;;18.27;8.82;;;;;;;;;;4990266;28;20385;-71
2022/02/11 14:49:28;;;;;;;15.93;7.82;;;;;;;;;;4988327;28;20518;-71
2022/02/11 14:51:56;;;;;;;19.63;8.43;;;;;;;;;;4970519;28;20027;-71
2022/02/11 14:57:26;;;;;;;23.20;8.15;;;;;;;;;;4990350;28;20069;-71
2022/02/11 14:59:53;;;;;;;17.50;8.75;;;;;;;;;;4990284;28;20395;-71
2022/02/11 15:02:20;;;;;;;15.35;7.35;;;;;;;;;;4988044;28;20029;-71
2022/02/11 15:04:47;;;;;;;18.02;7.47;;;;;;;;;;4987465;28;20019;-71
2022/02/11 15:07:14;;;;;;;18.23;7.43;;;;;;;;;;4990882;28;20056;-71
2022/02/11 15:09:40;;;;;;;14.70;7.15;;;;;;;;;;4985194;28;20033;-72
2022/02/11 15:12:09;;;;;;;16.73;7.38;;;;;;;;;;4970365;28;20074;-72
2022/02/11 15:14:36;;;;;;;17.48;8.40;;;;;;;;;;4988501;28;20035;-72
2022/02/11 15:17:02;;;;;;;16.13;8.05;;;;;;;;;;4984591;28;20050;-73
2022/02/11 15:19:29;;;;;;;11.95;7.00;;;;;;;;;;4971081;28;20126;-72
2022/02/11 15:21:55;;;;;;;18.15;7.30;;;;;;;;;;4990098;28;20041;-72
2022/02/11 15:24:21;;;;;;;14.52;6.43;;;;;;;;;;4988632;28;20352;-71
2022/02/11 15:26:47;;;;;;;14.85;8.05;;;;;;;;;;4971102;28;20019;-71
2022/02/11 15:29:28;;;;;;;14.85;7.15;;;;;;;;;;4971204;28;20076;-71
2022/02/11 15:38:02;;;;;;;17.35;7.82;;;;;;;;;;4976822;28;20092;-71
2022/02/11 15:40:29;;;;;;;11.02;7.35;;;;;;;;;;4989219;28;20137;-71
2022/02/11 15:42:55;;;;;;;16.08;7.55;;;;;;;;;;4988792;28;20069;-71
2022/02/11 15:45:22;;;;;;;13.52;6.57;;;;;;;;;;4973269;28;20026;-71
2022/02/11 15:47:48;;;;;;;20.63;9.18;;;;;;;;;;4971207;28;20031;-71
2022/02/11 15:50:14;;;;;;;16.63;8.20;;;;;;;;;;4970786;28;20030;-71
2022/02/11 15:52:40;;;;;;;14.05;7.35;;;;;;;;;;4969898;28;20547;-71
2022/02/11 15:55:06;;;;;;;13.35;7.32;;;;;;;;;;4987285;28;20026;-71
2022/02/11 15:57:32;;;;;;;17.92;7.40;;;;;;;;;;4989231;28;20022;-71
2022/02/11 15:59:59;;;;;;;16.10;6.95;;;;;;;;;;4977570;28;20479;-71
2022/02/11 16:02:25;;;;;;;12.35;6.03;;;;;;;;;;4987455;28;20033;-71
2022/02/11 16:04:52;;;;;;;17.63;7.85;;;;;;;;;;4989490;28;20082;-71
2022/02/11 16:07:19;;;;;;;14.88;6.65;;;;;;;;;;4988954;28;20386;-71
2022/02/11 16:09:48;;;;;;;15.82;5.70;;;;;;;;;;4992505;28;20113;-71
2022/02/11 16:12:15;;;;;;;14.55;6.05;;;;;;;;;;4992142;28;20022;-71
2022/02/11 16:14:41;;;;;;;9.85;5.93;;;;;;;;;;4992708;28;20080;-72
2022/02/11 16:17:10;;;;;;;13.77;5.90;;;;;;;;;;4992151;28;20430;-72
2022/02/11 16:19:36;;;;;;;17.90;6.20;;;;;;;;;;4983446;28;20070;-72
2022/02/11 16:22:04;;;;;;;11.27;5.97;;;;;;;;;;4972816;28;20057;-72
2022/02/11 16:24:30;;;;;;;14.30;6.60;;;;;;;;;;4984013;28;20035;-72
2022/02/11 16:26:58;;;;;;;18.83;6.43;;;;;;;;;;4993442;28;20027;-72
2022/02/11 16:29:24;;;;;;;13.63;5.55;;;;;;;;;;4989518;28;20034;-71
2022/02/11 16:31:50;;;;;;;18.30;6.72;;;;;;;;;;4976369;28;20466;-72
2022/02/11 16:43:26;;;;;;;13.95;5.72;;;;;;;;;;4979999;28;21780;-72
2022/02/11 16:45:54;;;;;;;14.30;7.65;;;;;;;;;;4988262;28;20102;-74
2022/02/11 16:48:21;;;;;;;24.33;7.20;;;;;;;;;;4973521;28;20031;-72
2022/02/11 16:50:47;;;;;;;13.48;6.70;;;;;;;;;;4973706;28;20035;-72
2022/02/11 16:53:13;;;;;;;15.13;6.35;;;;;;;;;;4973617;28;20023;-72
2022/02/11 16:55:39;;;;;;;15.57;6.47;;;;;;;;;;4984708;28;20595;-72
2022/02/11 16:58:06;;;;;;;11.77;6.55;;;;;;;;;;4973411;28;20034;-71
2022/02/11 17:00:32;;;;;;;13.10;6.03;;;;;;;;;;4973389;28;20043;-71
2022/02/11 17:02:58;;;;;;;14.63;6.97;;;;;;;;;;4973763;28;20030;-72
2022/02/11 17:05:24;;;;;;;19.75;6.65;;;;;;;;;;4989371;28;20038;-72
2022/02/11 17:07:50;;;;;;;11.23;5.38;;;;;;;;;;4992841;28;20412;-72
2022/02/11 17:10:16;;;;;;;12.27;5.25;;;;;;;;;;4976706;28;20096;-72
2022/02/11 17:12:42;;;;;;;14.70;6.07;;;;;;;;;;4973323;28;20054;-72
2022/02/11 17:27:48;;;;;;;7.47;2.15;;;;;;;;;;4960015;28;20164;-72
2022/02/11 17:30:14;;;;;;;3.40;1.95;;;;;;;;;;4973211;28;20031;-64
2022/02/11 17:32:40;;;;;;;5.00;1.65;;;;;;;;;;4973768;28;20445;-64
2022/02/11 17:35:07;;;;;;;2.85;1.00;;;;;;;;;;4972927;28;20037;-63
2022/02/11 17:37:37;;;;;;;3.63;1.13;;;;;;;;;;4985781;28;20049;-64
2022/02/11 17:40:04;;;;;;;2.00;1.30;;;;;;;;;;4992527;28;20039;-71
2022/02/11 17:42:30;;;;;;;3.25;1.75;;;;;;;;;;4979194;28;20468;-71
2022/02/11 17:44:58;;;;;;;3.28;1.75;;;;;;;;;;4972882;28;20488;-72
2022/02/11 17:47:24;;;;;;;2.58;1.50;;;;;;;;;;4972476;28;20023;-62
2022/02/11 17:49:51;;;;;;;7.03;2.00;;;;;;;;;;4972448;28;20501;-71
2022/02/11 17:52:17;;;;;;;1.58;0.98;;;;;;;;;;4982309;28;20053;-71
2022/02/11 17:54:44;;;;;;;2.63;1.20;;;;;;;;;;4992390;28;20487;-72
2022/02/11 17:57:11;;;;;;;2.92;1.42;;;;;;;;;;4990936;28;20027;-70
2022/02/11 17:59:38;;;;;;;3.08;1.30;;;;;;;;;;4992028;28;20038;-71
2022/02/11 18:02:05;;;;;;;1.08;0.82;;;;;;;;;;4983480;28;20023;-71
2022/02/11 18:04:33;;;;;;;4.03;1.13;;;;;;;;;;4972637;28;20483;-70
2022/02/11 18:07:00;;;;;;;2.70;1.10;;;;;;;;;;4979725;28;20037;-70
2022/02/11 18:09:27;;;;;;;2.88;0.90;;;;;;;;;;4992053;28;20071;-70
2022/02/11 18:11:54;;;;;;;1.42;1.10;;;;;;;;;;4982635;28;20040;-71
2022/02/11 18:17:27;;;;;;;3.13;1.10;;;;;;;;;;4990659;28;20101;-70
2022/02/11 18:22:58;;;;;;;4.35;1.13;;;;;;;;;;4977868;28;20038;-71
2022/02/11 18:25:28;;;;;;;2.60;0.73;;;;;;;;;;4985074;28;20092;-71
2022/02/11 18:27:58;;;;;;;3.45;0.73;;;;;;;;;;4985961;28;20503;-71
2022/02/11 18:30:32;;;;;;;5.32;0.88;;;;;;;;;;4972169;28;20023;-71
2022/02/11 18:33:07;;;;;;;2.80;0.80;;;;;;;;;;4971277;28;20031;-71
2022/02/11 18:35:34;;;;;;;2.47;0.65;;;;;;;;;;4970820;28;20027;-71
2022/02/11 18:38:01;;;;;;;3.22;1.23;;;;;;;;;;4972076;28;20034;-71
2022/02/11 18:40:28;;;;;;;1.48;0.93;;;;;;;;;;4970736;28;20038;-71
2022/02/11 18:42:55;;;;;;;2.47;1.00;;;;;;;;;;4972134;28;20023;-71
2022/02/11 18:45:22;;;;;;;3.05;1.10;;;;;;;;;;4971946;28;20034;-71
2022/02/11 18:47:50;;;;;;;6.07;1.23;;;;;;;;;;4981977;28;20109;-71
2022/02/11 18:50:18;;;;;;;1.02;0.85;;;;;;;;;;4985114;28;20058;-70
2022/02/11 18:52:45;;;;;;;1.77;0.75;;;;;;;;;;4982445;28;20483;-71
2022/02/11 18:55:12;;;;;;;3.25;1.00;;;;;;;;;;4991394;28;20411;-70
2022/02/11 18:57:39;;;;;;;2.15;1.23;;;;;;;;;;4976259;28;20447;-70
2022/02/11 19:02:52;;;;;;;2.67;1.08;;;;;;;;;;4975569;28;20562;-70
2022/02/11 19:05:19;;;;;;;3.65;1.92;;;;;;;;;;4970923;28;20026;-70
2022/02/11 19:07:46;;;;;;;1.85;1.23;;;;;;;;;;4970188;28;20438;-71
2022/02/11 19:10:17;;;;;;;2.42;1.40;;;;;;;;;;4971128;28;20578;-70
2022/02/11 19:12:47;;;;;;;3.10;0.93;;;;;;;;;;4978226;28;20126;-70
2022/02/11 19:15:15;;;;;;;4.43;1.20;;;;;;;;;;4986069;28;20368;-71
2022/02/11 19:17:41;;;;;;;3.95;1.92;;;;;;;;;;4988651;28;20476;-70
2022/02/11 19:20:09;;;;;;;1.42;1.20;;;;;;;;;;4980877;28;20039;-70
2022/02/11 19:22:36;;;;;;;4.10;1.52;;;;;;;;;;4971667;28;20037;-70
2022/02/11 19:25:04;;;;;;;8.05;1.15;;;;;;;;;;4983682;28;20023;-70
2022/02/11 19:27:33;;;;;;;4.80;1.58;;;;;;;;;;4988367;28;20026;-70
2022/02/11 19:30:00;;;;;;;3.92;1.52;;;;;;;;;;4989881;28;20530;-70
2022/02/11 19:32:27;;;;;;;1.38;1.00;;;;;;;;;;4989833;28;20113;-70
2022/02/11 19:34:54;;;;;;;3.25;1.30;;;;;;;;;;4990768;28;20396;-70
2022/02/11 19:37:22;;;;;;;2.25;0.98;;;;;;;;;;4989841;28;20025;-70
2022/02/11 19:39:49;;;;;;;1.65;1.27;;;;;;;;;;4984196;28;20034;-70
2022/02/11 19:42:17;;;;;;;3.60;1.50;;;;;;;;;;4975638;28;20019;-71
2022/02/11 19:44:47;;;;;;;4.50;3.13;;;;;;;;;;4993739;28;20027;-70
2022/02/11 19:47:14;;;;;;;4.43;2.20;;;;;;;;;;4989625;28;20479;-70
2022/02/11 19:49:43;;;;;;;2.47;1.75;;;;;;;;;;4974607;28;20034;-71
2022/02/11 19:52:11;;;;;;;3.25;1.50;;;;;;;;;;4977963;28;20022;-70
2022/02/11 19:54:38;;;;;;;3.45;2.22;;;;;;;;;;4994090;28;20464;-70
2022/02/11 19:57:05;;;;;;;5.78;2.28;;;;;;;;;;4991544;28;20483;-71
2022/02/11 19:59:34;;;;;;;2.95;1.92;;;;;;;;;;4994034;28;20392;-70
2022/02/11 20:02:24;;;;;;;3.83;2.40;;;;;;;;;;4975910;28;20022;-70
2022/02/11 20:05:21;;;;;;;4.03;2.20;;;;;;;;;;4989331;28;20063;-70
2022/02/11 20:07:49;;;;;;;2.50;1.60;;;;;;;;;;4974662;28;20472;-70
2022/02/11 20:10:17;;;;;;;3.58;1.77;;;;;;;;;;4993856;28;20079;-71
2022/02/11 20:12:44;;;;;;;3.28;1.70;;;;;;;;;;4991827;28;20041;-71
2022/02/11 20:15:14;;;;;;;3.15;2.05;;;;;;;;;;4983373;28;20055;-71